Time;durP1;ratioP1;P1;durP2;ratioP2;P2;SDS_P1;SDS_P2;PMS_P1;PMS_P2;Temp;Humidity;BMP_temperature;BMP_pressure;BME280_temperature;BME280_humidity;BME280_pressure;Samples;Min_cycle;Max_cycle;Signal;HPM_P1;HPM_P2
2023/06/07 00:01:47;;;;;;;;;;;18.40;99.90;;;;;;5073026;28;20017;-63
2023/06/07 00:04:13;;;;;;;;;;;18.50;99.90;;;;;;5073412;28;19981;-63
2023/06/07 00:06:42;;;;;;;;;;;18.60;99.90;;;;;;5073200;28;19982;-62
2023/06/07 00:09:08;;;;;;;;;;;18.60;99.90;;;;;;5073147;28;19992;-64
2023/06/07 00:11:34;;;;;;;;;;;18.60;99.90;;;;;;5073247;28;20035;-63
2023/06/07 00:14:00;;;;;;;;;;;18.60;99.90;;;;;;5073213;28;20055;-62
2023/06/07 00:16:26;;;;;;;;;;;18.70;99.90;;;;;;5073265;28;20475;-63
2023/06/07 00:18:52;;;;;;;;;;;18.80;99.90;;;;;;5073050;28;20010;-66
2023/06/07 00:21:19;;;;;;;;;;;18.80;99.90;;;;;;5073135;28;19981;-63
2023/06/07 00:23:45;;;;;;;;;;;18.80;99.90;;;;;;5072991;28;20479;-63
2023/06/07 00:26:11;;;;;;;;;;;18.80;99.90;;;;;;5073078;28;19988;-66
2023/06/07 00:28:36;;;;;;;;;;;18.80;99.90;;;;;;5071543;28;19985;-62
2023/06/07 00:31:02;;;;;;;;;;;18.80;99.90;;;;;;5072876;28;19982;-64
2023/06/07 00:33:28;;;;;;;;;;;18.80;99.90;;;;;;5073169;28;19988;-65
2023/06/07 00:35:53;;;;;;;;;;;18.80;99.90;;;;;;5073462;28;19981;-64
2023/06/07 00:38:19;;;;;;;;;;;18.80;99.90;;;;;;5076351;28;20009;-64
2023/06/07 00:40:44;;;;;;;;;;;18.80;99.90;;;;;;5076442;28;20039;-64
2023/06/07 00:43:10;;;;;;;;;;;18.80;99.90;;;;;;5076452;28;19989;-62
2023/06/07 00:45:35;;;;;;;;;;;18.70;99.90;;;;;;5076243;28;19994;-64
2023/06/07 00:48:01;;;;;;;;;;;18.70;99.90;;;;;;5076450;28;19981;-65
2023/06/07 00:50:27;;;;;;;;;;;18.70;99.90;;;;;;5076376;28;19982;-66
2023/06/07 00:52:52;;;;;;;;;;;18.70;99.90;;;;;;5076302;28;20047;-62
2023/06/07 00:55:18;;;;;;;;;;;18.70;99.90;;;;;;5076169;28;20074;-66
2023/06/07 00:57:44;;;;;;;;;;;18.70;99.90;;;;;;5075895;28;20012;-65
2023/06/07 01:00:13;;;;;;;;;;;18.60;99.90;;;;;;5076156;28;20415;-62
2023/06/07 01:02:39;;;;;;;;;;;18.60;99.90;;;;;;5075968;28;19985;-62
2023/06/07 01:05:06;;;;;;;;;;;18.70;99.90;;;;;;5076146;28;20112;-65
2023/06/07 01:07:32;;;;;;;;;;;18.70;99.90;;;;;;5076013;28;19986;-65
2023/06/07 01:09:59;;;;;;;;;;;18.70;99.90;;;;;;5075914;28;20035;-62
2023/06/07 01:12:25;;;;;;;;;;;18.70;99.90;;;;;;5075714;28;19981;-63
2023/06/07 01:14:50;;;;;;;;;;;18.70;99.90;;;;;;5076163;28;20328;-63
2023/06/07 01:17:17;;;;;;;;;;;18.70;99.90;;;;;;5075939;28;20015;-62
2023/06/07 01:19:53;;;;;;;;;;;18.70;99.90;;;;;;5075815;28;19981;-62
2023/06/07 01:22:24;;;;;;;;;;;18.70;99.90;;;;;;5076001;28;19985;-63
2023/06/07 01:24:50;;;;;;;;;;;18.70;99.90;;;;;;5075718;28;20347;-64
2023/06/07 01:27:16;;;;;;;;;;;18.70;99.90;;;;;;5075446;28;20325;-64
2023/06/07 01:29:43;;;;;;;;;;;18.70;99.90;;;;;;5075632;28;20455;-62
2023/06/07 01:32:11;;;;;;;;;;;18.70;99.90;;;;;;5075444;28;19986;-64
2023/06/07 01:34:38;;;;;;;;;;;18.80;99.90;;;;;;5075566;28;19981;-63
2023/06/07 01:37:05;;;;;;;;;;;18.70;99.90;;;;;;5075333;28;20459;-64
2023/06/07 01:39:31;;;;;;;;;;;18.80;99.90;;;;;;5075307;28;20093;-62
2023/06/07 01:41:58;;;;;;;;;;;18.80;99.90;;;;;;5075088;28;19992;-64
2023/06/07 01:44:23;;;;;;;;;;;18.80;99.90;;;;;;5075520;28;19988;-63
2023/06/07 01:46:49;;;;;;;;;;;18.90;99.90;;;;;;5075121;28;19982;-65
2023/06/07 01:49:17;;;;;;;;;;;18.80;99.90;;;;;;5074429;28;20027;-65
2023/06/07 01:51:42;;;;;;;;;;;18.90;99.90;;;;;;5075160;28;19982;-62
2023/06/07 01:54:08;;;;;;;;;;;18.90;99.90;;;;;;5075281;28;20023;-63
2023/06/07 01:56:45;;;;;;;;;;;18.90;99.90;;;;;;5074969;28;20479;-66
2023/06/07 01:59:30;;;;;;;;;;;18.80;99.90;;;;;;5074886;28;20059;-62
2023/06/07 02:02:03;;;;;;;;;;;18.80;99.90;;;;;;5074768;28;20028;-66
2023/06/07 02:04:30;;;;;;;;;;;18.80;99.90;;;;;;5074825;28;20118;-64
2023/06/07 02:06:59;;;;;;;;;;;18.80;99.90;;;;;;5074834;28;20039;-63
2023/06/07 02:09:26;;;;;;;;;;;18.80;99.90;;;;;;5074835;28;20106;-62
2023/06/07 02:11:52;;;;;;;;;;;18.80;99.90;;;;;;5074760;28;19985;-62
2023/06/07 02:14:20;;;;;;;;;;;18.80;99.90;;;;;;5074827;28;19994;-62
2023/06/07 02:16:46;;;;;;;;;;;18.80;99.90;;;;;;5074876;28;20392;-64
2023/06/07 02:19:13;;;;;;;;;;;18.90;99.90;;;;;;5074725;28;20104;-66
2023/06/07 02:21:39;;;;;;;;;;;18.90;99.90;;;;;;5074501;28;19986;-64
2023/06/07 02:24:05;;;;;;;;;;;18.90;99.90;;;;;;5074339;28;20428;-65
2023/06/07 02:26:32;;;;;;;;;;;18.80;99.90;;;;;;5074506;28;19982;-65
2023/06/07 02:28:58;;;;;;;;;;;18.80;99.90;;;;;;5074577;28;19985;-64
2023/06/07 02:31:23;;;;;;;;;;;18.80;99.90;;;;;;5074444;28;19989;-65
2023/06/07 02:33:49;;;;;;;;;;;18.80;99.90;;;;;;5074288;28;19988;-64
2023/06/07 02:36:15;;;;;;;;;;;18.90;99.90;;;;;;5074212;28;20466;-66
2023/06/07 02:38:40;;;;;;;;;;;18.90;99.90;;;;;;5073964;28;20045;-62
2023/06/07 02:41:06;;;;;;;;;;;18.90;99.90;;;;;;5074247;28;19982;-62
2023/06/07 02:43:31;;;;;;;;;;;18.90;99.90;;;;;;5074046;28;20470;-62
2023/06/07 02:45:57;;;;;;;;;;;18.90;99.90;;;;;;5074126;28;19993;-63
2023/06/07 02:48:22;;;;;;;;;;;18.90;99.90;;;;;;5074183;28;19981;-65
2023/06/07 02:50:48;;;;;;;;;;;18.90;99.90;;;;;;5072646;28;20012;-66
2023/06/07 02:53:13;;;;;;;;;;;18.90;99.90;;;;;;5073939;28;19981;-64
2023/06/07 02:55:39;;;;;;;;;;;19.00;99.90;;;;;;5073989;28;19982;-62
2023/06/07 02:58:05;;;;;;;;;;;18.90;99.90;;;;;;5073836;28;20019;-62
2023/06/07 03:00:34;;;;;;;;;;;18.90;99.90;;;;;;5073541;28;20112;-65
2023/06/07 03:02:59;;;;;;;;;;;18.90;99.90;;;;;;5073892;28;19981;-64
2023/06/07 03:05:26;;;;;;;;;;;18.90;99.90;;;;;;5073820;28;20008;-63
2023/06/07 03:07:52;;;;;;;;;;;18.80;99.90;;;;;;5073484;28;19985;-61
2023/06/07 03:10:18;;;;;;;;;;;18.80;99.90;;;;;;5074086;28;20077;-63
2023/06/07 03:12:43;;;;;;;;;;;18.80;99.90;;;;;;5074014;28;20077;-64
2023/06/07 03:15:09;;;;;;;;;;;18.80;99.90;;;;;;5073687;28;19985;-63
2023/06/07 03:17:35;;;;;;;;;;;18.80;99.90;;;;;;5073773;28;20009;-62
2023/06/07 03:20:02;;;;;;;;;;;18.80;99.90;;;;;;5073649;28;20033;-66
2023/06/07 03:22:27;;;;;;;;;;;18.80;99.90;;;;;;5073343;28;19982;-65
2023/06/07 03:24:54;;;;;;;;;;;18.80;99.90;;;;;;5073663;28;20393;-65
2023/06/07 03:27:23;;;;;;;;;;;18.80;99.90;;;;;;5073853;28;20004;-64
2023/06/07 03:29:52;;;;;;;;;;;18.80;99.90;;;;;;5073498;28;19982;-63
2023/06/07 03:32:17;;;;;;;;;;;18.80;99.90;;;;;;5073582;28;19986;-62
2023/06/07 03:34:44;;;;;;;;;;;18.80;99.90;;;;;;5073629;28;19990;-63
2023/06/07 03:37:09;;;;;;;;;;;18.80;99.90;;;;;;5073136;28;20463;-65
2023/06/07 03:39:35;;;;;;;;;;;18.70;99.90;;;;;;5073647;28;19985;-64
2023/06/07 03:42:01;;;;;;;;;;;18.70;99.90;;;;;;5073549;28;20092;-63
2023/06/07 03:44:26;;;;;;;;;;;18.70;99.90;;;;;;5073472;28;20087;-62
2023/06/07 03:46:52;;;;;;;;;;;18.70;99.90;;;;;;5073649;28;19986;-65
2023/06/07 03:49:18;;;;;;;;;;;18.70;99.90;;;;;;5073351;28;20065;-62
2023/06/07 03:51:43;;;;;;;;;;;18.80;99.90;;;;;;5073284;28;19981;-65
2023/06/07 03:54:10;;;;;;;;;;;18.80;99.90;;;;;;5073207;28;20035;-62
2023/06/07 03:56:35;;;;;;;;;;;18.80;99.90;;;;;;5073366;28;20047;-62
2023/06/07 03:59:01;;;;;;;;;;;18.80;99.90;;;;;;5073346;28;20060;-63
2023/06/07 04:01:27;;;;;;;;;;;18.80;99.90;;;;;;5072987;28;20048;-64
2023/06/07 04:03:53;;;;;;;;;;;18.80;99.90;;;;;;5073378;28;19988;-62
2023/06/07 04:06:24;;;;;;;;;;;18.90;99.90;;;;;;5073057;28;20076;-63
2023/06/07 04:08:51;;;;;;;;;;;18.90;99.90;;;;;;5073086;28;20012;-61
2023/06/07 04:11:20;;;;;;;;;;;18.90;99.90;;;;;;5074326;28;19985;-65
2023/06/07 04:13:45;;;;;;;;;;;18.90;99.90;;;;;;5076966;28;19989;-66
2023/06/07 04:16:11;;;;;;;;;;;19.00;99.90;;;;;;5076847;28;20068;-65
2023/06/07 04:18:37;;;;;;;;;;;19.00;99.90;;;;;;5076873;28;20005;-63
2023/06/07 04:21:03;;;;;;;;;;;19.10;99.90;;;;;;5076832;28;19985;-65
2023/06/07 04:23:28;;;;;;;;;;;19.20;99.90;;;;;;5076648;28;20040;-66
2023/06/07 04:25:55;;;;;;;;;;;19.20;99.90;;;;;;5076880;28;20031;-66
2023/06/07 04:28:23;;;;;;;;;;;19.20;99.90;;;;;;5076754;28;20031;-65
2023/06/07 04:30:51;;;;;;;;;;;19.30;99.90;;;;;;5076634;28;20088;-65
2023/06/07 04:33:18;;;;;;;;;;;19.30;99.90;;;;;;5076583;28;20462;-65
2023/06/07 04:35:44;;;;;;;;;;;19.30;99.90;;;;;;5076472;28;19988;-62
2023/06/07 04:38:15;;;;;;;;;;;19.30;99.90;;;;;;5076409;28;20006;-65
2023/06/07 04:40:42;;;;;;;;;;;19.30;99.90;;;;;;5076643;28;20034;-63
2023/06/07 04:43:10;;;;;;;;;;;19.30;99.90;;;;;;5076565;28;19985;-62
2023/06/07 04:45:40;;;;;;;;;;;19.30;99.90;;;;;;5076341;28;20476;-64
2023/06/07 04:48:07;;;;;;;;;;;19.20;99.90;;;;;;5076676;28;20059;-62
2023/06/07 04:50:33;;;;;;;;;;;19.20;99.90;;;;;;5076206;28;19981;-61
2023/06/07 04:53:02;;;;;;;;;;;19.30;99.90;;;;;;5076180;28;20458;-63
2023/06/07 04:55:34;;;;;;;;;;;19.30;99.90;;;;;;5076205;28;19989;-64
2023/06/07 04:58:03;;;;;;;;;;;19.20;99.90;;;;;;5076087;28;20027;-63
2023/06/07 05:00:30;;;;;;;;;;;19.10;99.90;;;;;;5075726;28;20105;-64
2023/06/07 05:02:55;;;;;;;;;;;19.10;99.90;;;;;;5075880;28;20448;-63
2023/06/07 05:05:21;;;;;;;;;;;19.30;99.90;;;;;;5075900;28;19988;-62
2023/06/07 05:07:46;;;;;;;;;;;19.30;99.90;;;;;;5075932;28;19989;-64
2023/06/07 05:10:12;;;;;;;;;;;19.30;99.90;;;;;;5075807;28;20453;-62
2023/06/07 05:12:38;;;;;;;;;;;19.40;99.90;;;;;;5075851;28;19981;-64
2023/06/07 05:15:05;;;;;;;;;;;19.30;99.90;;;;;;5075690;28;20019;-62
2023/06/07 05:17:30;;;;;;;;;;;19.30;99.90;;;;;;5075701;28;20005;-63
2023/06/07 05:19:56;;;;;;;;;;;19.40;99.90;;;;;;5075523;28;20446;-64
2023/06/07 05:22:22;;;;;;;;;;;19.40;99.90;;;;;;5074505;28;20024;-64
2023/06/07 05:24:47;;;;;;;;;;;19.40;99.90;;;;;;5075429;28;20071;-66
2023/06/07 05:27:14;;;;;;;;;;;19.50;99.90;;;;;;5075589;28;19982;-66
2023/06/07 05:29:39;;;;;;;;;;;19.60;99.90;;;;;;5075470;28;19993;-66
2023/06/07 05:32:05;;;;;;;;;;;19.60;99.90;;;;;;5075375;28;19985;-62
2023/06/07 05:34:31;;;;;;;;;;;19.60;99.90;;;;;;5075278;28;20028;-65
2023/06/07 05:36:57;;;;;;;;;;;19.50;99.90;;;;;;5075723;28;19986;-64
2023/06/07 05:39:23;;;;;;;;;;;19.50;99.90;;;;;;5075367;28;20013;-61
2023/06/07 05:41:49;;;;;;;;;;;19.40;99.90;;;;;;5075383;28;20031;-63
2023/06/07 05:44:15;;;;;;;;;;;19.40;99.90;;;;;;5075318;28;20485;-64
2023/06/07 05:46:41;;;;;;;;;;;19.50;99.90;;;;;;5075218;28;19985;-63
2023/06/07 05:49:06;;;;;;;;;;;19.50;99.90;;;;;;5074992;28;20511;-64
2023/06/07 05:51:32;;;;;;;;;;;19.60;99.90;;;;;;5075170;28;20043;-63
2023/06/07 05:53:57;;;;;;;;;;;19.60;99.90;;;;;;5074963;28;20092;-66
2023/06/07 05:56:23;;;;;;;;;;;19.70;99.90;;;;;;5075106;28;19981;-62
2023/06/07 05:58:52;;;;;;;;;;;19.70;99.90;;;;;;5074117;28;20478;-63
2023/06/07 06:01:17;;;;;;;;;;;19.60;99.90;;;;;;5074330;28;20017;-62
2023/06/07 06:03:43;;;;;;;;;;;19.70;99.90;;;;;;5074968;28;19986;-64
2023/06/07 06:06:16;;;;;;;;;;;19.70;99.90;;;;;;5074828;28;19988;-61
2023/06/07 06:08:42;;;;;;;;;;;19.80;99.90;;;;;;5074686;28;19985;-64
2023/06/07 06:11:09;;;;;;;;;;;19.90;99.90;;;;;;5075015;28;19992;-65
2023/06/07 06:13:35;;;;;;;;;;;19.90;99.90;;;;;;5072864;28;19996;-63
2023/06/07 06:16:00;;;;;;;;;;;20.00;99.90;;;;;;5074418;28;19981;-64
2023/06/07 06:18:26;;;;;;;;;;;20.00;99.90;;;;;;5074383;28;20052;-65
2023/06/07 06:20:51;;;;;;;;;;;20.10;99.90;;;;;;5074342;28;19985;-61
2023/06/07 06:23:17;;;;;;;;;;;20.10;99.90;;;;;;5074315;28;19982;-64
2023/06/07 06:25:43;;;;;;;;;;;20.00;99.90;;;;;;5074206;28;19986;-64
2023/06/07 06:28:08;;;;;;;;;;;20.10;99.90;;;;;;5074283;28;20428;-65
2023/06/07 06:30:34;;;;;;;;;;;20.10;99.90;;;;;;5074126;28;20072;-63
2023/06/07 06:32:59;;;;;;;;;;;20.20;99.90;;;;;;5073995;28;20072;-64
2023/06/07 06:35:27;;;;;;;;;;;20.30;99.90;;;;;;5073720;28;19986;-65
2023/06/07 06:37:53;;;;;;;;;;;20.30;99.90;;;;;;5110622;28;20004;-62
2023/06/07 06:40:20;;;;;;;;;;;20.30;99.90;;;;;;5092314;28;20458;-61
2023/06/07 06:42:46;;;;;;;;;;;20.30;99.90;;;;;;5086660;28;20076;-62
2023/06/07 06:45:11;;;;;;;;;;;20.50;99.90;;;;;;5093379;28;20009;-61
2023/06/07 06:47:41;;;;;;;;;;;20.50;99.90;;;;;;5089419;28;19992;-63
2023/06/07 06:50:07;;;;;;;;;;;20.60;99.90;;;;;;5090709;28;19995;-62
2023/06/07 06:52:33;;;;;;;;;;;20.60;99.90;;;;;;5093919;28;20029;-61
2023/06/07 06:54:59;;;;;;;;;;;20.70;99.90;;;;;;5093790;28;20432;-61
2023/06/07 06:57:24;;;;;;;;;;;20.70;99.90;;;;;;5084860;28;20124;-63
2023/06/07 06:59:50;;;;;;;;;;;20.80;99.90;;;;;;5073322;28;20005;-63
2023/06/07 07:02:15;;;;;;;;;;;21.00;99.90;;;;;;5074828;28;20487;-65
2023/06/07 07:04:42;;;;;;;;;;;21.20;99.90;;;;;;5071709;28;20398;-64
2023/06/07 07:07:07;;;;;;;;;;;21.50;99.90;;;;;;5070800;28;20092;-65
2023/06/07 07:09:33;;;;;;;;;;;21.90;99.90;;;;;;5084404;28;20092;-65
2023/06/07 07:11:58;;;;;;;;;;;22.20;99.90;;;;;;5090670;28;19981;-65
2023/06/07 07:14:24;;;;;;;;;;;22.60;99.90;;;;;;5084470;28;19993;-63
2023/06/07 07:16:50;;;;;;;;;;;22.80;99.90;;;;;;5086196;28;19989;-64
2023/06/07 07:19:15;;;;;;;;;;;23.00;99.90;;;;;;5091239;28;20668;-64
2023/06/07 07:21:43;;;;;;;;;;;22.90;99.90;;;;;;5101111;28;19985;-64
2023/06/07 07:24:08;;;;;;;;;;;23.00;99.90;;;;;;5091786;28;20072;-65
2023/06/07 07:26:35;;;;;;;;;;;23.20;99.90;;;;;;5091550;28;20072;-64
2023/06/07 07:29:01;;;;;;;;;;;23.20;99.90;;;;;;5083013;28;20455;-62
2023/06/07 07:31:30;;;;;;;;;;;23.20;99.90;;;;;;5070709;28;20015;-65
2023/06/07 07:33:56;;;;;;;;;;;23.40;99.90;;;;;;5085931;28;20080;-64
2023/06/07 07:36:22;;;;;;;;;;;23.80;99.90;;;;;;5091583;28;19981;-64
2023/06/07 07:38:48;;;;;;;;;;;24.30;99.90;;;;;;5084649;28;20100;-63
2023/06/07 07:41:14;;;;;;;;;;;25.00;99.90;;;;;;5071582;28;20035;-66
2023/06/07 07:43:40;;;;;;;;;;;26.70;99.90;;;;;;5072569;28;19985;-66
2023/06/07 07:46:06;;;;;;;;;;;28.50;98.10;;;;;;5072971;28;20046;-65
2023/06/07 07:48:31;;;;;;;;;;;29.90;92.80;;;;;;5078705;28;19993;-62
2023/06/07 07:50:57;;;;;;;;;;;30.60;92.60;;;;;;5080279;28;19993;-64
2023/06/07 07:53:22;;;;;;;;;;;31.70;90.90;;;;;;5085095;28;19997;-64
2023/06/07 07:55:48;;;;;;;;;;;32.80;82.80;;;;;;5085836;28;19996;-63
2023/06/07 07:58:14;;;;;;;;;;;33.50;78.50;;;;;;5079893;28;20005;-66
2023/06/07 08:00:40;;;;;;;;;;;33.90;77.10;;;;;;5082019;28;20014;-66
2023/06/07 08:03:06;;;;;;;;;;;34.10;69.80;;;;;;5078225;28;19993;-64
2023/06/07 08:05:31;;;;;;;;;;;34.10;68.70;;;;;;5079421;28;20028;-67
2023/06/07 08:07:57;;;;;;;;;;;33.70;69.60;;;;;;5085535;28;20443;-65
2023/06/07 08:10:22;;;;;;;;;;;34.00;72.20;;;;;;5074970;28;20004;-66
2023/06/07 08:12:48;;;;;;;;;;;34.50;70.20;;;;;;5093699;28;20064;-66
2023/06/07 08:15:14;;;;;;;;;;;34.90;68.10;;;;;;5090871;28;19989;-63
2023/06/07 08:17:40;;;;;;;;;;;35.20;64.10;;;;;;5074208;28;20063;-65
2023/06/07 08:20:08;;;;;;;;;;;35.40;63.00;;;;;;5080750;28;20398;-64
2023/06/07 08:22:35;;;;;;;;;;;35.70;62.40;;;;;;5076197;28;19982;-65
2023/06/07 08:25:00;;;;;;;;;;;35.70;64.10;;;;;;5096349;28;19988;-64
2023/06/07 08:27:26;;;;;;;;;;;35.80;60.10;;;;;;5094730;28;19981;-63
2023/06/07 08:29:52;;;;;;;;;;;36.10;60.70;;;;;;5095028;28;20075;-62
2023/06/07 08:32:18;;;;;;;;;;;36.40;58.60;;;;;;5093796;28;20091;-64
2023/06/07 08:34:43;;;;;;;;;;;36.30;58.80;;;;;;5080426;28;19989;-63
2023/06/07 08:37:09;;;;;;;;;;;36.40;57.70;;;;;;5078710;28;20000;-64
2023/06/07 08:39:34;;;;;;;;;;;36.20;57.00;;;;;;5090556;28;20501;-63
2023/06/07 08:42:01;;;;;;;;;;;36.10;56.40;;;;;;5078602;28;20402;-64
2023/06/07 08:44:26;;;;;;;;;;;36.10;54.90;;;;;;5091382;28;20063;-65
2023/06/07 08:46:52;;;;;;;;;;;35.90;54.90;;;;;;5094607;28;19989;-63
2023/06/07 08:49:18;;;;;;;;;;;35.90;56.70;;;;;;5093747;28;19981;-65
2023/06/07 08:51:45;;;;;;;;;;;35.90;57.90;;;;;;5092957;28;20401;-68
2023/06/07 08:54:13;;;;;;;;;;;35.70;57.40;;;;;;5093736;28;20344;-64
2023/06/07 08:56:39;;;;;;;;;;;35.70;56.30;;;;;;5092312;28;20025;-69
2023/06/07 08:59:05;;;;;;;;;;;35.80;56.40;;;;;;5085178;28;20059;-65
2023/06/07 09:01:35;;;;;;;;;;;35.80;57.80;;;;;;5073518;28;20025;-68
2023/06/07 09:04:01;;;;;;;;;;;35.80;56.80;;;;;;5087111;28;19996;-65
2023/06/07 09:06:26;;;;;;;;;;;35.80;55.40;;;;;;5093446;28;20072;-64
2023/06/07 09:08:52;;;;;;;;;;;36.00;54.90;;;;;;5074403;28;20015;-67
2023/06/07 09:11:18;;;;;;;;;;;36.30;57.50;;;;;;5075260;28;19982;-69
2023/06/07 09:13:44;;;;;;;;;;;36.30;58.00;;;;;;5083150;28;19985;-67
2023/06/07 09:16:12;;;;;;;;;;;36.20;56.90;;;;;;5093377;28;20167;-64
2023/06/07 09:18:45;;;;;;;;;;;35.90;54.60;;;;;;5091657;28;20348;-66
2023/06/07 09:21:21;;;;;;;;;;;35.90;54.50;;;;;;5075722;28;19992;-67
2023/06/07 09:23:47;;;;;;;;;;;35.80;55.70;;;;;;5077880;28;20351;-66
2023/06/07 09:26:13;;;;;;;;;;;35.50;54.90;;;;;;5084924;28;19994;-66
2023/06/07 09:28:38;;;;;;;;;;;35.20;54.90;;;;;;5080621;28;20392;-66
2023/06/07 09:31:04;;;;;;;;;;;35.10;55.80;;;;;;5081208;28;19997;-67
2023/06/07 09:33:36;;;;;;;;;;;35.20;57.00;;;;;;5086753;28;19985;-68
2023/06/07 09:36:02;;;;;;;;;;;35.30;56.20;;;;;;5086897;28;20004;-64
2023/06/07 09:38:27;;;;;;;;;;;35.10;57.30;;;;;;5080542;28;20005;-67
2023/06/07 09:40:53;;;;;;;;;;;34.80;55.10;;;;;;5080327;28;20394;-63
2023/06/07 09:43:19;;;;;;;;;;;34.70;58.70;;;;;;5078991;28;20013;-65
2023/06/07 09:45:59;;;;;;;;;;;34.80;57.10;;;;;;5080998;28;20072;-66
2023/06/07 09:48:32;;;;;;;;;;;34.60;57.20;;;;;;5072913;28;19998;-64
2023/06/07 09:50:58;;;;;;;;;;;34.80;55.50;;;;;;5075929;28;19996;-65
2023/06/07 09:53:24;;;;;;;;;;;34.90;57.00;;;;;;5080407;28;20066;-64
2023/06/07 09:55:50;;;;;;;;;;;34.90;53.00;;;;;;5073483;28;20261;-65
2023/06/07 09:58:56;;;;;;;;;;;;;;;;;;;;;
2023/06/07 10:01:35;;;;;;;;;;;34.50;52.50;;;;;;5066368;28;20451;-62
2023/06/07 10:04:04;;;;;;;;;;;34.80;54.50;;;;;;5091011;28;20092;-62
2023/06/07 10:06:34;;;;;;;;;;;34.40;54.90;;;;;;5092473;28;20291;-64
2023/06/07 10:09:07;;;;;;;;;;;34.30;54.70;;;;;;5091290;28;20028;-65
2023/06/07 10:11:40;;;;;;;;;;;34.00;58.30;;;;;;5091497;28;19982;-64
2023/06/07 10:14:09;;;;;;;;;;;34.40;55.10;;;;;;5089955;28;20080;-64
2023/06/07 10:17:01;;;;;;;;;;;34.60;55.00;;;;;;5089477;28;20062;-62
2023/06/07 10:19:59;;;;;;;;;;;34.70;57.10;;;;;;5070211;28;20471;-63
2023/06/07 10:22:30;;;;;;;;;;;34.70;55.80;;;;;;5066931;28;19985;-65
2023/06/07 10:25:07;;;;;;;;;;;34.80;58.10;;;;;;5080575;28;20000;-62
2023/06/07 10:28:02;;;;;;;;;;;35.10;56.30;;;;;;5076894;28;20008;-64
2023/06/07 10:30:31;;;;;;;;;;;34.90;56.70;;;;;;5069969;28;19985;-63
2023/06/07 10:33:03;;;;;;;;;;;35.30;55.20;;;;;;5076933;28;20426;-63
2023/06/07 10:35:29;;;;;;;;;;;35.30;57.00;;;;;;5086012;28;19989;-63
2023/06/07 10:37:55;;;;;;;;;;;35.20;53.40;;;;;;5075225;28;20087;-65
2023/06/07 10:40:28;;;;;;;;;;;34.60;53.50;;;;;;5086734;28;20451;-66
2023/06/07 10:42:55;;;;;;;;;;;33.80;51.70;;;;;;5078749;28;20471;-65
2023/06/07 10:45:34;;;;;;;;;;;33.20;56.10;;;;;;5073518;28;19982;-63
2023/06/07 10:48:19;;;;;;;;;;;32.60;55.50;;;;;;5091280;28;20081;-66
2023/06/07 10:50:50;;;;;;;;;;;32.30;57.90;;;;;;5085832;28;20332;-64
2023/06/07 10:53:16;;;;;;;;;;;32.60;58.00;;;;;;5079477;28;20022;-64
2023/06/07 10:55:46;;;;;;;;;;;32.60;56.70;;;;;;5082416;28;20412;-67
2023/06/07 10:58:25;;;;;;;;;;;32.40;56.40;;;;;;5087202;28;20009;-64
2023/06/07 11:00:50;;;;;;;;;;;32.10;55.50;;;;;;5086812;28;20020;-64
2023/06/07 11:03:22;;;;;;;;;;;31.80;54.90;;;;;;5082900;28;20364;-64
2023/06/07 11:05:53;;;;;;;;;;;31.80;58.30;;;;;;5079214;28;20000;-65
2023/06/07 11:08:28;;;;;;;;;;;32.30;58.50;;;;;;5078216;28;19990;-63
2023/06/07 11:11:01;;;;;;;;;;;33.00;55.70;;;;;;5087868;28;20403;-66
2023/06/07 11:13:38;;;;;;;;;;;33.50;57.00;;;;;;5082651;28;20054;-63
2023/06/07 11:16:22;;;;;;;;;;;33.90;54.40;;;;;;5084176;28;19989;-61
2023/06/07 11:19:04;;;;;;;;;;;33.80;54.40;;;;;;5077298;28;20011;-63
2023/06/07 11:21:50;;;;;;;;;;;33.80;51.50;;;;;;5075043;28;20075;-64
2023/06/07 11:24:16;;;;;;;;;;;33.90;55.20;;;;;;5072255;28;19989;-66
2023/06/07 11:26:42;;;;;;;;;;;34.10;54.40;;;;;;5073253;28;19989;-66
2023/06/07 11:29:10;;;;;;;;;;;34.40;51.10;;;;;;5071011;28;19985;-66
2023/06/07 11:31:35;;;;;;;;;;;34.40;52.40;;;;;;5070869;28;20444;-61
2023/06/07 11:34:01;;;;;;;;;;;34.70;53.20;;;;;;5068876;28;19986;-60
2023/06/07 11:36:31;;;;;;;;;;;35.00;53.40;;;;;;5068379;28;19981;-63
2023/06/07 11:38:59;;;;;;;;;;;35.00;51.90;;;;;;5068294;28;20012;-60
2023/06/07 11:41:24;;;;;;;;;;;35.10;53.20;;;;;;5069570;28;20044;-63
2023/06/07 11:43:50;;;;;;;;;;;34.60;49.50;;;;;;5069798;28;20444;-65
2023/06/07 11:46:16;;;;;;;;;;;33.80;50.90;;;;;;5069598;28;20347;-64
2023/06/07 11:48:42;;;;;;;;;;;33.30;53.10;;;;;;5071058;28;19982;-65
2023/06/07 11:51:07;;;;;;;;;;;33.10;51.20;;;;;;5072488;28;20504;-64
2023/06/07 11:53:33;;;;;;;;;;;32.80;50.00;;;;;;5072133;28;19982;-64
2023/06/07 11:55:59;;;;;;;;;;;32.80;52.40;;;;;;5071809;28;19981;-64
2023/06/07 11:58:25;;;;;;;;;;;32.60;53.20;;;;;;5072415;28;20009;-64
2023/06/07 12:00:52;;;;;;;;;;;32.30;54.40;;;;;;5073117;28;20100;-64
2023/06/07 12:03:20;;;;;;;;;;;32.00;53.90;;;;;;5072546;28;20508;-64
2023/06/07 12:05:46;;;;;;;;;;;32.20;54.20;;;;;;5071249;28;19989;-64
2023/06/07 12:08:16;;;;;;;;;;;32.00;55.10;;;;;;5072499;28;20004;-65
2023/06/07 12:10:43;;;;;;;;;;;31.60;53.60;;;;;;5087700;28;19989;-63
2023/06/07 12:13:14;;;;;;;;;;;31.40;52.50;;;;;;5087020;28;20453;-63
2023/06/07 12:15:44;;;;;;;;;;;31.10;52.30;;;;;;5080319;28;19993;-61
2023/06/07 12:18:11;;;;;;;;;;;31.10;55.30;;;;;;5081909;28;20486;-65
2023/06/07 12:20:37;;;;;;;;;;;31.10;57.50;;;;;;5091591;28;19981;-64
2023/06/07 12:23:03;;;;;;;;;;;31.10;57.20;;;;;;5072744;28;19986;-64
2023/06/07 12:25:28;;;;;;;;;;;30.90;59.60;;;;;;5072653;28;19988;-64
2023/06/07 12:27:54;;;;;;;;;;;30.70;60.30;;;;;;5073411;28;20435;-65
2023/06/07 12:30:20;;;;;;;;;;;30.60;59.40;;;;;;5072939;28;20004;-66
2023/06/07 12:32:47;;;;;;;;;;;30.20;59.70;;;;;;5074808;28;19989;-64
2023/06/07 12:35:13;;;;;;;;;;;30.20;60.70;;;;;;5076212;28;19986;-64
2023/06/07 12:37:39;;;;;;;;;;;30.40;61.60;;;;;;5076614;28;19986;-64
2023/06/07 12:40:06;;;;;;;;;;;30.50;61.70;;;;;;5076468;28;20456;-64
2023/06/07 12:42:32;;;;;;;;;;;30.90;60.20;;;;;;5076733;28;20060;-64
2023/06/07 12:44:58;;;;;;;;;;;31.30;59.30;;;;;;5077000;28;19989;-64
2023/06/07 12:47:24;;;;;;;;;;;31.60;59.00;;;;;;5076399;28;20454;-64
2023/06/07 12:49:49;;;;;;;;;;;31.40;58.80;;;;;;5076441;28;19985;-63
2023/06/07 12:52:15;;;;;;;;;;;31.20;58.30;;;;;;5076471;28;20491;-65
2023/06/07 12:54:41;;;;;;;;;;;31.20;58.20;;;;;;5076360;28;20435;-64
2023/06/07 12:57:06;;;;;;;;;;;31.60;61.80;;;;;;5076463;28;19992;-64
2023/06/07 12:59:32;;;;;;;;;;;31.80;60.10;;;;;;5076289;28;20367;-64
2023/06/07 13:01:57;;;;;;;;;;;31.50;57.50;;;;;;5075940;28;20017;-63
2023/06/07 13:04:23;;;;;;;;;;;31.60;57.80;;;;;;5075883;28;20444;-65
2023/06/07 13:06:49;;;;;;;;;;;31.70;61.30;;;;;;5076362;28;20028;-64
2023/06/07 13:09:17;;;;;;;;;;;32.00;58.60;;;;;;5075755;28;20231;-64
2023/06/07 13:11:43;;;;;;;;;;;32.50;57.40;;;;;;5076045;28;20452;-64
2023/06/07 13:14:09;;;;;;;;;;;32.90;59.90;;;;;;5075908;28;19985;-61
2023/06/07 13:16:34;;;;;;;;;;;33.40;59.30;;;;;;5074899;28;19991;-62
2023/06/07 13:19:00;;;;;;;;;;;33.70;56.00;;;;;;5075821;28;20002;-61
2023/06/07 13:21:27;;;;;;;;;;;34.00;56.30;;;;;;5075982;28;19993;-63
2023/06/07 13:23:52;;;;;;;;;;;34.00;56.50;;;;;;5075792;28;20034;-62
2023/06/07 13:26:18;;;;;;;;;;;34.10;56.60;;;;;;5075705;28;19989;-62
2023/06/07 13:28:45;;;;;;;;;;;34.10;55.00;;;;;;5075646;28;19990;-62
2023/06/07 13:31:11;;;;;;;;;;;34.40;56.30;;;;;;5074204;28;20371;-62
2023/06/07 13:33:36;;;;;;;;;;;34.50;55.10;;;;;;5075590;28;20455;-62
2023/06/07 13:36:02;;;;;;;;;;;34.20;54.20;;;;;;5075486;28;19981;-63
2023/06/07 13:38:27;;;;;;;;;;;33.80;56.40;;;;;;5075622;28;20006;-62
2023/06/07 13:40:53;;;;;;;;;;;33.60;56.90;;;;;;5075542;28;19985;-63
2023/06/07 13:43:18;;;;;;;;;;;33.30;55.70;;;;;;5074674;28;19982;-62
2023/06/07 13:45:45;;;;;;;;;;;33.00;55.70;;;;;;5074780;28;20042;-63
2023/06/07 13:48:11;;;;;;;;;;;32.00;56.40;;;;;;5075341;28;20384;-62
2023/06/07 13:50:37;;;;;;;;;;;31.70;56.90;;;;;;5075259;28;20431;-63
2023/06/07 13:53:02;;;;;;;;;;;31.70;57.40;;;;;;5075124;28;19981;-63
2023/06/07 13:55:28;;;;;;;;;;;31.60;57.70;;;;;;5075169;28;20077;-63
2023/06/07 13:57:54;;;;;;;;;;;31.50;58.70;;;;;;5075148;28;20009;-62
2023/06/07 14:00:21;;;;;;;;;;;31.40;58.10;;;;;;5076825;28;20524;-63
2023/06/07 14:02:47;;;;;;;;;;;31.20;58.80;;;;;;5088136;28;20070;-62
2023/06/07 14:05:13;;;;;;;;;;;31.10;59.00;;;;;;5095134;28;19985;-62
2023/06/07 14:07:39;;;;;;;;;;;30.90;58.30;;;;;;5094161;28;20366;-62
2023/06/07 14:10:06;;;;;;;;;;;30.70;59.30;;;;;;5095031;28;19992;-63
2023/06/07 14:12:32;;;;;;;;;;;30.40;59.50;;;;;;5094050;28;19985;-62
2023/06/07 14:14:57;;;;;;;;;;;30.20;61.80;;;;;;5094492;28;20137;-62
2023/06/07 14:17:23;;;;;;;;;;;30.10;61.30;;;;;;5094938;28;20076;-63
2023/06/07 14:19:48;;;;;;;;;;;29.90;60.80;;;;;;5093588;28;20051;-63